Météo Nord-Pas-de-Calais   La météo au plus près de chez vous

Station météorologique

Observations météo à Bernay (27056)

27056003 166 m Dernier relevé à 17:06
22.9°C
Humidité 69 % Vent 23.8 km/h

Journée consultée

Vendredi 4 Septembre 2026

Synthèse de la journée

Périodes de référence en UTC

Température maximale

23.5°C

à 16:00

06h 06h

Température minimale

17.3°C

à 06:54

18h 18h

Rafale maximale

37 km/h

à 17:00

00h 00h

Précipitations

0 mm

Cumul quotidien

06h 06h

Ensoleillement

2h 51 mins

Durée quotidienne

00h 00h

Graphiques de la journée

Heure locale Réduire

Données détaillées

Relevés météo

Pas de 6 minutes Afficher les relevés infra-horaires
Relevés météo détaillés à Bernay pour le Vendredi 4 Septembre 2026
Heure Température °C Point de rosée °C Humidité % Vent moyen (raf.), km/h Précipitations mm Ensoleillement min Rayonnement global W/m²
17:06 22.9 °C 16.9 °C 69 % 21 km/h (37 km/h) 0 mm0 mm 0 min 91.2 W/m²
17:00 23 °C 17 °C 69 % 21 km/h (37 km/h) 0 mm0 mm 0 min 94.4 W/m²
16:54 22.8 °C 17 °C 70 % 20 km/h (33 km/h) 0 mm0 mm 0 min 54.3 W/m²
16:48 22.8 °C 16.8 °C 69 % 21 km/h (32 km/h) 0 mm0 mm 0 min 65.8 W/m²
16:42 22.8 °C 16.8 °C 69 % 19 km/h (32 km/h) 0 mm0 mm 0 min 70.8 W/m²
16:36 22.8 °C 17 °C 70 % 18 km/h (30 km/h) 0 mm0 mm 0 min 48.4 W/m²
16:30 22.6 °C 16.6 °C 69 % 20 km/h (30 km/h) 0 mm0 mm 0 min 40.2 W/m²
16:24 22.6 °C 16.8 °C 70 % 19 km/h (28 km/h) 0 mm0 mm 0 min 41.8 W/m²
16:18 22.6 °C 16.6 °C 69 % 19 km/h (32 km/h) 0 mm0 mm 0 min 38.4 W/m²
16:12 22.7 °C 16.5 °C 68 % 21 km/h (32 km/h) 0 mm0 mm 0 min 51.8 W/m²
16:06 22.9 °C 16.9 °C 69 % 24 km/h (33 km/h) 0 mm0 mm 0 min 75.9 W/m²
16:00 22.9 °C 16.7 °C 68 % 24 km/h (36 km/h) 0 mm0 mm 0 min 85.7 W/m²
15:54 22.8 °C 16.6 °C 68 % 23 km/h (32 km/h) 0 mm0 mm 0 min 65.3 W/m²
15:48 23 °C 17 °C 69 % 24 km/h (35 km/h) 0 mm0 mm 0 min 81.1 W/m²
15:42 23 °C 16.8 °C 68 % 25 km/h (35 km/h) 0 mm0 mm 0 min 95.1 W/m²
15:36 23.1 °C 16.9 °C 68 % 21 km/h (33 km/h) 0 mm0 mm 0 min 105.6 W/m²
15:30 23.2 °C 17 °C 68 % 19 km/h (31 km/h) 0 mm0 mm 0 min 118.7 W/m²
15:24 23.4 °C 16.9 °C 67 % 22 km/h (35 km/h) 0 mm0 mm 0 min 125.8 W/m²
15:18 23.2 °C 16.7 °C 67 % 23 km/h (35 km/h) 0 mm0 mm 0 min 142.3 W/m²
15:12 23.3 °C 16.8 °C 67 % 23 km/h (32 km/h) 0 mm0 mm 0 min 153.4 W/m²
15:06 22.9 °C 16.9 °C 69 % 24 km/h (36 km/h) 0 mm0 mm 0 min 142.1 W/m²
15:00 22.7 °C 16.9 °C 70 % 24 km/h (35 km/h) 0 mm0 mm 0 min 101.2 W/m²
14:54 22.5 °C 17 °C 71 % 23 km/h (35 km/h) 0 mm0 mm 0 min 74 W/m²
14:48 22.9 °C 16.9 °C 69 % 20 km/h (35 km/h) 0 mm0 mm 0 min 102.9 W/m²
14:42 22.9 °C 17.6 °C 72 % 19 km/h (31 km/h) 0 mm0 mm 0 min 127.3 W/m²
14:36 22.3 °C 17.2 °C 73 % 19 km/h (28 km/h) 0 mm0 mm 0 min 70 W/m²
14:30 22.4 °C 16.9 °C 71 % 20 km/h (32 km/h) 0 mm0 mm 0 min 45.4 W/m²
14:24 22.4 °C 17.1 °C 72 % 22 km/h (35 km/h) 0 mm0 mm 0 min 74 W/m²
14:18 22.3 °C 17.2 °C 73 % 23 km/h (35 km/h) 0 mm0 mm 0 min 70.3 W/m²
14:12 22.5 °C 17.2 °C 72 % 23 km/h (32 km/h) 0 mm0 mm 0 min 78.5 W/m²
14:06 22.7 °C 17.4 °C 72 % 21 km/h (31 km/h) 0 mm0 mm 1 min 111 W/m²
14:00 23.2 °C 17.4 °C 70 % 21 km/h (31 km/h) 0 mm0 mm 5 min 221.7 W/m²
13:54 22.7 °C 17.2 °C 71 % 19 km/h (30 km/h) 0 mm0 mm 1 min 177.3 W/m²
13:48 22.5 °C 17.6 °C 74 % 18 km/h (31 km/h) 0 mm0 mm 0 min 112.4 W/m²
13:42 22.8 °C 17.9 °C 74 % 19 km/h (35 km/h) 0 mm0 mm 1 min 124.6 W/m²
13:36 22.9 °C 18 °C 74 % 23 km/h (35 km/h) 0 mm0 mm 4 min 220.5 W/m²
13:30 22.2 °C 18 °C 77 % 19 km/h (32 km/h) 0 mm0 mm 0 min 155.9 W/m²
13:24 22.4 °C 18.6 °C 79 % 17 km/h (29 km/h) 0 mm0 mm 0 min 151.6 W/m²
13:18 21.8 °C 18.2 °C 80 % 21 km/h (31 km/h) 0 mm0 mm 0 min 145.7 W/m²
13:12 21.6 °C 17.8 °C 79 % 21 km/h (32 km/h) 0 mm0 mm 0 min 111 W/m²
13:06 21.7 °C 18.3 °C 81 % 24 km/h (36 km/h) 0 mm0 mm 2 min 162.6 W/m²
13:00 21.6 °C 17.8 °C 79 % 19 km/h (36 km/h) 0 mm0 mm 0 min 94.3 W/m²
12:54 21.9 °C 18.1 °C 79 % 16 km/h (27 km/h) 0 mm0 mm 2 min 161 W/m²
12:48 21.4 °C 18.4 °C 83 % 15 km/h (24 km/h) 0 mm0 mm 2 min 161.7 W/m²
12:42 21.2 °C 18.4 °C 84 % 17 km/h (26 km/h) 0 mm0 mm 0 min 91.2 W/m²
12:36 20.9 °C 18.5 °C 86 % 19 km/h (30 km/h) 0 mm0 mm 3 min 171.7 W/m²
12:30 20.7 °C 17.9 °C 84 % 20 km/h (32 km/h) 0 mm0 mm 0 min 66.2 W/m²
12:24 21.3 °C 17.7 °C 80 % 19 km/h (32 km/h) 0 mm0 mm 0 min 96.6 W/m²
12:18 21.3 °C 17.7 °C 80 % 17 km/h (30 km/h) 0 mm0 mm 0 min 50 W/m²
12:12 21.8 °C 17.6 °C 77 % 18 km/h (29 km/h) 0 mm0 mm 0 min 63.4 W/m²
12:06 22 °C 17.6 °C 76 % 18 km/h (29 km/h) 0 mm0 mm 0 min 123 W/m²
12:00 22.2 °C 17.8 °C 76 % 19 km/h (29 km/h) 0 mm0 mm 5 min 184.1 W/m²
11:54 22.1 °C 17.7 °C 76 % 19 km/h (29 km/h) 0 mm0 mm 6 min 228.5 W/m²
11:48 22.1 °C 18.1 °C 78 % 18 km/h (31 km/h) 0 mm0 mm 6 min 240.5 W/m²
11:42 21.2 °C 17.8 °C 81 % 17 km/h (31 km/h) 0 mm0 mm 1 min 109.9 W/m²
11:36 20.9 °C 17.3 °C 80 % 19 km/h (29 km/h) 0 mm0 mm 0 min 82.6 W/m²
11:30 20.8 °C 17.2 °C 80 % 17 km/h (26 km/h) 0 mm0 mm 0 min 73.6 W/m²
11:24 20.8 °C 17.4 °C 81 % 19 km/h (29 km/h) 0 mm0 mm 0 min 70.5 W/m²
11:18 20.7 °C 17.1 °C 80 % 20 km/h (30 km/h) 0 mm0 mm 0 min 50.8 W/m²
11:12 21 °C 17.2 °C 79 % 20 km/h (33 km/h) 0 mm0 mm 0 min 94.7 W/m²
11:06 21.1 °C 17.5 °C 80 % 20 km/h (33 km/h) 0 mm0 mm 2 min 125.3 W/m²
11:00 21.1 °C 17.7 °C 81 % 19 km/h (30 km/h) 0 mm0 mm 3 min 149 W/m²
10:54 20.9 °C 17.7 °C 82 % 19 km/h (30 km/h) 0 mm0 mm 3 min 139.2 W/m²
10:48 20.6 °C 17.6 °C 83 % 19 km/h (30 km/h) 0 mm0 mm 5 min 167.8 W/m²
10:42 20.1 °C 17.5 °C 85 % 18 km/h (33 km/h) 0 mm0 mm 0 min 86.5 W/m²
10:36 20 °C 17.4 °C 85 % 18 km/h (33 km/h) 0 mm0 mm 1 min 88.4 W/m²
10:30 19.8 °C 17.4 °C 86 % 18 km/h (30 km/h) 0 mm0 mm 0 min 67.4 W/m²
10:24 19.6 °C 17.2 °C 86 % 20 km/h (31 km/h) 0 mm0 mm 0 min 63.6 W/m²
10:18 19.5 °C 17.1 °C 86 % 21 km/h (33 km/h) 0 mm0 mm 0 min 55.9 W/m²
10:12 19.5 °C 17.1 °C 86 % 22 km/h (33 km/h) 0 mm0 mm 0 min 69.5 W/m²
10:06 19.6 °C 17.2 °C 86 % 19 km/h (31 km/h) 0 mm0 mm 0 min 71.1 W/m²
10:00 19.7 °C 17.5 °C 87 % 18 km/h (28 km/h) 0 mm0 mm 3 min 92.8 W/m²
09:54 19.6 °C 17.4 °C 87 % 21 km/h (31 km/h) 0 mm0 mm 0 min 74.6 W/m²
09:48 19.6 °C 17.2 °C 86 % 20 km/h (31 km/h) 0 mm0 mm 0 min 66.9 W/m²
09:42 20 °C 17.4 °C 85 % 17 km/h (27 km/h) 0 mm0 mm 3 min 83.4 W/m²
09:36 20.4 °C 17.8 °C 85 % 13 km/h (26 km/h) 0 mm0 mm 6 min 126 W/m²
09:30 20.2 °C 17.8 °C 86 % 13 km/h (20 km/h) 0 mm0 mm 6 min 115.6 W/m²
09:24 20 °C 17.8 °C 87 % 14 km/h (24 km/h) 0 mm0 mm 6 min 99.4 W/m²
09:18 19.7 °C 17.7 °C 88 % 15 km/h (25 km/h) 0 mm0 mm 6 min 92.3 W/m²
09:12 19.5 °C 17.6 °C 89 % 15 km/h (25 km/h) 0 mm0 mm 6 min 85.9 W/m²
09:06 19.3 °C 17.4 °C 89 % 15 km/h (24 km/h) 0 mm0 mm 6 min 79.7 W/m²
09:00 19.2 °C 17.7 °C 91 % 14 km/h (24 km/h) 0 mm0 mm 6 min 73.7 W/m²
08:54 18.9 °C 17.4 °C 91 % 13 km/h (24 km/h) 0 mm0 mm 6 min 68 W/m²
08:48 18.8 °C 17.5 °C 92 % 12 km/h (19 km/h) 0 mm0 mm 6 min 63.2 W/m²
08:42 18.6 °C 17.4 °C 93 % 12 km/h (18 km/h) 0 mm0 mm 6 min 57.1 W/m²
08:36 18.5 °C 17.5 °C 94 % 10 km/h (18 km/h) 0 mm0 mm 6 min 50.4 W/m²
08:30 18.3 °C 17.5 °C 95 % 9 km/h (15 km/h) 0 mm0 mm 6 min 44.7 W/m²
08:24 18.2 °C 17.4 °C 95 % 9 km/h (18 km/h) 0 mm0 mm 5 min 40.6 W/m²
08:18 18 °C 17.4 °C 96 % 9 km/h (18 km/h) 0 mm0 mm 6 min 35.9 W/m²
08:12 17.8 °C 17.2 °C 96 % 9 km/h (16 km/h) 0 mm0 mm 6 min 26.2 W/m²
08:06 17.7 °C 17.2 °C 97 % 8 km/h (15 km/h) 0 mm0 mm 6 min 21.3 W/m²
08:00 17.6 °C 17.1 °C 97 % 8 km/h (15 km/h) 0 mm0 mm 5 min 16.7 W/m²
07:54 17.6 °C 17.1 °C 97 % 8 km/h (14 km/h) 0 mm0 mm 6 min 14.9 W/m²
07:48 17.4 °C 17.1 °C 98 % 8 km/h (14 km/h) 0 mm0 mm 6 min 10.4 W/m²
07:42 17.4 °C 16.9 °C 97 % 7 km/h (14 km/h) 0 mm0 mm 0 min 4.7 W/m²
07:36 17.4 °C 16.9 °C 97 % 9 km/h (16 km/h) 0 mm0 mm 0 min 0.2 W/m²
07:30 17.4 °C 16.9 °C 97 % 10 km/h (22 km/h) 0 mm0 mm 0 min 0 W/m²
07:24 17.5 °C 17 °C 97 % 11 km/h (22 km/h) 0 mm0 mm 0 min 0 W/m²
07:18 17.5 °C 17 °C 97 % 11 km/h (20 km/h) 0 mm0 mm 0 min 0 W/m²
07:12 17.4 °C 17.1 °C 98 % 11 km/h (20 km/h) 0 mm0 mm 0 min 0 W/m²
07:06 17.4 °C 17.1 °C 98 % 10 km/h (19 km/h) 0 mm0 mm 0 min 0 W/m²
07:00 17.3 °C 17 °C 98 % 9 km/h (17 km/h) 0 mm0 mm 0 min 0 W/m²
06:54 17.3 °C 17 °C 98 % 9 km/h (17 km/h) 0 mm0 mm 0 min 0 W/m²
06:48 17.4 °C 17.1 °C 98 % 8 km/h (15 km/h) 0 mm0 mm 0 min 0 W/m²
06:42 17.5 °C 17.2 °C 98 % 8 km/h (13 km/h) 0 mm0 mm 0 min 0 W/m²
06:36 17.6 °C 17.1 °C 97 % 7 km/h (13 km/h) 0 mm0 mm 0 min 0 W/m²
06:30 17.7 °C 17.2 °C 97 % 9 km/h (18 km/h) 0 mm0 mm 0 min 0 W/m²
06:24 17.8 °C 17.5 °C 98 % 11 km/h (18 km/h) 0 mm0 mm 0 min 0 W/m²
06:18 17.8 °C 17.5 °C 98 % 11 km/h (20 km/h) 0 mm0 mm 0 min 0 W/m²
06:12 17.9 °C 17.6 °C 98 % 12 km/h (20 km/h) 0 mm0 mm 0 min 0 W/m²
06:06 17.9 °C 17.6 °C 98 % 12 km/h (19 km/h) 0 mm0 mm 0 min 0 W/m²
06:00 17.8 °C 17.5 °C 98 % 12 km/h (21 km/h) 0 mm0 mm 0 min 0 W/m²
05:54 17.8 °C 17.5 °C 98 % 12 km/h (21 km/h) 0 mm0 mm 0 min 0 W/m²
05:48 17.8 °C 17.5 °C 98 % 11 km/h (20 km/h) 0 mm0 mm 0 min 0 W/m²
05:42 17.7 °C 17.4 °C 98 % 9 km/h (19 km/h) 0 mm0 mm 0 min 0 W/m²
05:36 17.6 °C 17.3 °C 98 % 7 km/h (15 km/h) 0 mm0 mm 0 min 0 W/m²
05:30 17.6 °C 17.3 °C 98 % 5 km/h (10 km/h) 0 mm0 mm 0 min 0 W/m²
05:24 17.5 °C 17.2 °C 98 % 4 km/h (8 km/h) 0 mm0 mm 0 min 0 W/m²
05:18 17.5 °C 17.2 °C 98 % 5 km/h (8 km/h) 0 mm0 mm 0 min 0 W/m²
05:12 17.5 °C 17.2 °C 98 % 6 km/h (8 km/h) 0 mm0 mm 0 min 0 W/m²
05:06 17.5 °C 17 °C 97 % 6 km/h (10 km/h) 0 mm0 mm 0 min 0 W/m²
05:00 17.6 °C 17.3 °C 98 % 6 km/h (11 km/h) 0 mm0 mm 0 min 0 W/m²
04:54 17.6 °C 17.1 °C 97 % 6 km/h (11 km/h) 0 mm0 mm 0 min 0 W/m²
04:48 17.8 °C 17.3 °C 97 % 6 km/h (11 km/h) 0 mm0 mm 0 min 0 W/m²
04:42 17.8 °C 17.3 °C 97 % 6 km/h (12 km/h) 0 mm0 mm 0 min 0 W/m²
04:36 17.9 °C 17.4 °C 97 % 7 km/h (12 km/h) 0 mm0 mm 0 min 0 W/m²
04:30 17.9 °C 17.4 °C 97 % 6 km/h (10 km/h) 0 mm0 mm 0 min 0 W/m²
04:24 17.9 °C 17.3 °C 96 % 5 km/h (12 km/h) 0 mm0 mm 0 min 0 W/m²
04:18 18 °C 17.4 °C 96 % 6 km/h (12 km/h) 0 mm0 mm 0 min 0 W/m²
04:12 18.1 °C 17.5 °C 96 % 5 km/h (11 km/h) 0 mm0 mm 0 min 0 W/m²
04:06 18.2 °C 17.6 °C 96 % 6 km/h (12 km/h) 0 mm0 mm 0 min 0 W/m²
04:00 18.3 °C 17.7 °C 96 % 7 km/h (12 km/h) 0 mm0 mm 0 min 0 W/m²
03:54 18.2 °C 17.6 °C 96 % 6 km/h (11 km/h) 0 mm0 mm 0 min 0 W/m²
03:48 18.2 °C 17.6 °C 96 % 6 km/h (13 km/h) 0 mm0 mm 0 min 0 W/m²
03:42 18.2 °C 17.6 °C 96 % 7 km/h (10 km/h) 0 mm0 mm 0 min 0 W/m²
03:36 18.3 °C 17.5 °C 95 % 8 km/h (12 km/h) 0 mm0 mm 0 min 0 W/m²
03:30 18.3 °C 17.7 °C 96 % 8 km/h (13 km/h) 0 mm0 mm 0 min 0 W/m²
03:24 18.3 °C 17.5 °C 95 % 9 km/h (15 km/h) 0 mm0 mm 0 min 0 W/m²
03:18 18.4 °C 17.6 °C 95 % 9 km/h (13 km/h) 0 mm0 mm 0 min 0 W/m²
03:12 18.3 °C 17.5 °C 95 % 8 km/h (13 km/h) 0 mm0 mm 0 min 0 W/m²
03:06 18.3 °C 17.5 °C 95 % 7 km/h (11 km/h) 0 mm0 mm 0 min 0 W/m²
03:00 18.5 °C 17.5 °C 94 % 7 km/h (9 km/h) 0 mm0 mm 0 min 0 W/m²
02:54 18.7 °C 17.5 °C 93 % 7 km/h (10 km/h) 0 mm0 mm 0 min 0 W/m²
02:48 18.9 °C 17.7 °C 93 % 7 km/h (12 km/h) 0 mm0 mm 0 min 0 W/m²
02:42 19 °C 17.8 °C 93 % 7 km/h (12 km/h) 0 mm0 mm 0 min 0 W/m²
02:36 19 °C 17.8 °C 93 % 7 km/h (12 km/h) 0 mm0 mm 0 min 0 W/m²
02:30 19 °C 18 °C 94 % 8 km/h (12 km/h) 0 mm0 mm 0 min 0 W/m²
02:24 19 °C 18.2 °C 95 % 7 km/h (10 km/h) 0 mm0 mm 0 min 0 W/m²
02:18 18.9 °C 18.2 °C 96 % 7 km/h (11 km/h) 0 mm0 mm 0 min 0 W/m²
02:12 18.7 °C 18.2 °C 97 % 6 km/h (10 km/h) 0 mm0 mm 0 min 0 W/m²
02:06 18.6 °C 18.1 °C 97 % 6 km/h (10 km/h) 0 mm0 mm 0 min 0 W/m²
02:00 18.5 °C 18 °C 97 % 5 km/h (10 km/h) 0 mm0 mm 0 min 0 W/m²
01:54 18.5 °C 18.2 °C 98 % 5 km/h (7 km/h) 0 mm0 mm 0 min 0 W/m²
01:48 18.5 °C 18.2 °C 98 % 4 km/h (6 km/h) 0 mm0 mm 0 min 0 W/m²
01:42 18.6 °C 18.3 °C 98 % 4 km/h (6 km/h) 0 mm0 mm 0 min 0 W/m²
01:36 18.7 °C 18.4 °C 98 % 3 km/h (5 km/h) 0 mm0 mm 0 min 0 W/m²
01:30 18.8 °C 18.5 °C 98 % 3 km/h (4 km/h) 0 mm0 mm 0 min 0 W/m²
01:24 18.8 °C 18.1 °C 96 % 3 km/h (4 km/h) 0 mm0 mm 0 min 0 W/m²
01:18 18.9 °C 18.2 °C 96 % 3 km/h (4 km/h) 0 mm0 mm 0 min 0 W/m²
01:12 19 °C 18.3 °C 96 % 3 km/h (4 km/h) 0 mm0 mm 0 min 0 W/m²
01:06 19.1 °C 18.1 °C 94 % 2 km/h (4 km/h) 0 mm0 mm 0 min 0 W/m²
01:00 19.3 °C 18.3 °C 94 % 2 km/h (3 km/h) 0 mm0 mm 0 min 0 W/m²
00:54 19.5 °C 18.3 °C 93 % 3 km/h (4 km/h) 0 mm0 mm 0 min 0 W/m²
00:48 19.6 °C 18.4 °C 93 % 4 km/h (5 km/h) 0 mm0 mm 0 min 0 W/m²
00:42 19.8 °C 18.5 °C 92 % 3 km/h (5 km/h) 0 mm0 mm 0 min 0 W/m²
00:36 20.2 °C 18.9 °C 92 % 4 km/h (6 km/h) 0 mm0 mm 0 min 0 W/m²
00:30 20.3 °C 18.8 °C 91 % 5 km/h (6 km/h) 0 mm0 mm 0 min 0 W/m²
00:24 20.4 °C 18.9 °C 91 % 6 km/h (7 km/h) 0 mm0 mm 0 min 0 W/m²
00:18 20.6 °C 18.9 °C 90 % 6 km/h (7 km/h) 0 mm0 mm 0 min 0 W/m²
00:12 20.7 °C 19 °C 90 % 6 km/h (9 km/h) 0 mm0 mm 0 min 0 W/m²
00:06 20.7 °C 18.8 °C 89 % 7 km/h (9 km/h) 0 mm0 mm 0 min 0 W/m²
00:00 20.8 °C 18.9 °C 89 % 7 km/h (9 km/h) 0 mm0 mm 0 min 0 W/m²

Données via Météo-France

Relevés météo à Bernay

Cette page rassemble les observations de la station de Bernay : température, humidité, vent, précipitations et pression atmosphérique. Les graphiques facilitent le suivi de la journée, tandis que le tableau donne accès aux mesures horaires et infra-horaires disponibles.

Pour replacer ces mesures dans leur contexte, consultez la climatologie de Bernay ainsi que ses normales et records. Retrouvez aussi la carte des observations météo en temps réel.